Time;durP1;ratioP1;P1;durP2;ratioP2;P2;SDS_P1;SDS_P2;PMS_P1;PMS_P2;Temp;Humidity;BMP_temperature;BMP_pressure;BME280_temperature;BME280_humidity;BME280_pressure;Samples;Min_cycle;Max_cycle;Signal;HPM_P1;HPM_P2
2022/01/15 00:00:50;;;;;;;33.55;18.45;;;;;;;4.53;64.35;101717.69;5063060;28;20056;-83
2022/01/15 00:03:34;;;;;;;35.83;14.75;;;;;;;4.78;61.77;101715.31;5071016;28;20036;-84
2022/01/15 00:06:19;;;;;;;24.30;12.75;;;;;;;4.67;61.74;101721.66;5100610;28;20096;-85
2022/01/15 00:09:04;;;;;;;23.17;12.97;;;;;;;4.84;61.55;101716.19;5098318;28;20050;-85
2022/01/15 00:11:49;;;;;;;34.00;17.15;;;;;;;4.94;60.26;101711.72;5102831;28;20131;-85
2022/01/15 00:14:39;;;;;;;23.23;13.82;;;;;;;4.77;61.78;101705.63;5098677;28;20039;-85
2022/01/15 00:17:46;;;;;;;33.20;17.10;;;;;;;4.44;62.09;101703.03;5100267;28;20031;-84
2022/01/15 00:20:32;;;;;;;31.75;16.90;;;;;;;4.65;61.49;101704.94;5076551;28;20124;-84
2022/01/15 00:23:17;;;;;;;27.98;15.82;;;;;;;4.13;62.48;101705.34;5060592;28;20041;-84
2022/01/15 00:26:02;;;;;;;20.88;13.40;;;;;;;4.26;62.93;101709.56;5087033;28;20055;-83
2022/01/15 00:28:47;;;;;;;42.45;16.88;;;;;;;4.46;62.79;101695.53;5082119;28;20064;-83
2022/01/15 00:31:34;;;;;;;31.58;16.60;;;;;;;4.45;61.42;101693.91;5079595;28;20043;-83
2022/01/15 00:34:19;;;;;;;29.60;16.60;;;;;;;4.49;62.01;101693.16;5061411;28;20036;-83
2022/01/15 00:37:04;;;;;;;21.95;12.05;;;;;;;4.60;61.49;101676.06;5082906;28;20055;-83
2022/01/15 00:39:48;;;;;;;23.33;13.02;;;;;;;4.62;61.26;101665.03;5083086;28;20040;-82
2022/01/15 00:42:36;;;;;;;24.42;12.55;;;;;;;4.66;61.27;101672.34;5068547;28;20047;-83
2022/01/15 00:45:22;;;;;;;36.55;17.55;;;;;;;4.52;62.02;101670.31;5100345;28;20035;-83
2022/01/15 00:48:07;;;;;;;29.40;16.80;;;;;;;4.51;61.30;101665.97;5092860;28;20048;-83
2022/01/15 00:50:52;;;;;;;25.42;13.93;;;;;;;4.35;61.59;101666.84;5085950;28;20402;-83
2022/01/15 00:53:37;;;;;;;25.38;13.02;;;;;;;4.15;62.20;101673.59;5069131;28;20051;-84
2022/01/15 00:56:22;;;;;;;21.17;12.02;;;;;;;4.32;63.15;101670.06;5083423;28;20405;-82
2022/01/15 00:59:07;;;;;;;27.35;13.23;;;;;;;4.51;62.04;101657.91;5080300;28;20516;-83
2022/01/15 01:01:51;;;;;;;21.85;12.18;;;;;;;4.53;62.56;101663.84;5084034;28;20413;-84
2022/01/15 01:04:36;;;;;;;25.45;13.32;;;;;;;4.68;62.27;101656.75;5085113;28;20044;-83
2022/01/15 01:07:21;;;;;;;28.20;15.50;;;;;;;4.83;62.96;101656.09;5080136;28;20044;-84
2022/01/15 01:25:10;;;;;;;41.47;16.98;;;;;;;4.49;61.72;101635.78;5084430;28;20043;-85
2022/01/15 01:28:03;;;;;;;24.83;12.80;;;;;;;4.56;61.52;101625.63;5081025;28;20055;-84
2022/01/15 01:30:58;;;;;;;32.55;17.33;;;;;;;4.57;61.49;101627.28;5086018;28;20045;-84
2022/01/15 01:33:47;;;;;;;20.30;12.40;;;;;;;4.21;61.79;101637.63;5086738;28;20044;-84
2022/01/15 01:39:32;;;;;;;30.63;17.63;;;;;;;4.40;62.42;101638.13;5076430;28;20049;-83
2022/01/15 01:45:12;;;;;;;36.55;18.10;;;;;;;4.58;61.70;101628.88;5085906;28;20033;-83
2022/01/15 01:47:57;;;;;;;28.60;17.85;;;;;;;4.60;62.13;101615.97;5083306;28;20040;-83
2022/01/15 01:50:41;;;;;;;34.15;16.40;;;;;;;4.40;61.57;101610.38;5086335;28;20055;-84
2022/01/15 01:53:26;;;;;;;31.70;17.63;;;;;;;4.49;62.29;101603.47;5079173;28;20040;-83
2022/01/15 01:56:11;;;;;;;27.52;16.15;;;;;;;4.55;61.98;101587.13;5085719;28;20430;-84
2022/01/15 01:58:57;;;;;;;21.98;14.00;;;;;;;4.56;62.78;101588.75;5080119;28;20059;-84
2022/01/15 02:01:43;;;;;;;30.45;17.63;;;;;;;4.57;61.30;101586.88;5079675;28;20055;-84
2022/01/15 02:04:27;;;;;;;25.75;15.93;;;;;;;4.46;61.33;101593.22;5085778;28;20047;-84
2022/01/15 02:07:13;;;;;;;25.15;13.25;;;;;;;3.94;61.91;101585.59;5082565;28;20052;-84
2022/01/15 02:09:59;;;;;;;47.92;18.05;;;;;;;3.77;62.57;101585.63;5058666;28;20045;-83
2022/01/15 02:12:44;;;;;;;;;;;;;;;3.73;63.60;101589.06;5063865;28;20048;-84
2022/01/15 02:15:29;;;;;;;19.98;12.10;;;;;;;3.89;63.22;101574.78;5064451;28;19912;-83
2022/01/15 02:18:14;;;;;;;24.45;13.90;;;;;;;4.17;62.68;101576.44;5066296;28;20045;-84
2022/01/15 02:23:50;;;;;;;26.67;12.80;;;;;;;3.58;63.00;101557.41;5080904;28;20489;-83
2022/01/15 02:26:38;;;;;;;29.98;16.98;;;;;;;3.53;63.03;101556.53;5079205;28;20048;-84
2022/01/15 02:29:22;;;;;;;28.40;16.48;;;;;;;3.93;62.76;101554.38;5077269;28;20041;-83
2022/01/15 02:32:08;;;;;;;23.58;12.60;;;;;;;4.17;62.40;101542.28;5083584;28;20051;-83
2022/01/15 02:34:53;;;;;;;29.03;23.03;;;;;;;4.28;62.55;101540.50;5083930;28;20044;-83
2022/01/15 02:37:38;;;;;;;30.85;16.60;;;;;;;4.32;61.91;101541.63;5080498;28;20040;-85
2022/01/15 02:40:22;;;;;;;23.63;13.60;;;;;;;4.40;62.32;101537.69;5084574;28;20051;-85
2022/01/15 02:43:11;;;;;;;16.58;9.98;;;;;;;4.61;63.54;101540.31;5079166;28;20289;-84
2022/01/15 02:45:57;;;;;;;28.00;14.45;;;;;;;4.81;63.77;101526.22;5082387;28;20040;-84
2022/01/15 02:48:42;;;;;;;22.08;12.10;;;;;;;4.85;63.11;101526.50;5079547;28;20555;-83
2022/01/15 02:51:31;;;;;;;18.35;9.55;;;;;;;4.93;62.93;101521.44;5084536;28;20048;-83
2022/01/15 02:54:15;;;;;;;24.40;14.70;;;;;;;5.04;62.60;101531.25;5083041;28;20039;-84
2022/01/15 02:57:04;;;;;;;17.67;10.55;;;;;;;5.07;62.10;101527.22;5081439;28;20044;-83
2022/01/15 02:59:49;;;;;;;32.80;14.07;;;;;;;4.96;61.77;101525.53;5078105;28;20048;-84
2022/01/15 03:02:34;;;;;;;21.38;10.05;;;;;;;4.43;62.00;101515.63;5082408;28;20051;-83
2022/01/15 03:05:22;;;;;;;22.17;11.27;;;;;;;4.41;61.67;101517.75;5080769;28;20044;-83
2022/01/15 03:08:07;;;;;;;22.75;14.38;;;;;;;4.17;62.54;101522.59;5080676;28;20049;-82
2022/01/15 03:10:51;;;;;;;21.77;12.18;;;;;;;4.17;61.88;101528.81;5084072;28;20040;-83
2022/01/15 03:13:38;;;;;;;18.10;10.45;;;;;;;4.19;62.48;101523.19;5083651;28;20412;-83
2022/01/15 03:16:23;;;;;;;22.92;14.27;;;;;;;4.00;63.19;101530.78;5079059;28;20044;-83
2022/01/15 03:19:08;;;;;;;17.77;10.82;;;;;;;4.01;63.14;101526.22;5077340;28;20052;-84
2022/01/15 03:21:53;;;;;;;20.27;13.93;;;;;;;3.84;63.53;101527.09;5079951;28;20047;-83
2022/01/15 03:24:38;;;;;;;16.00;9.57;;;;;;;3.90;63.88;101522.59;5059887;28;20413;-82
2022/01/15 03:27:24;;;;;;;17.77;10.85;;;;;;;3.91;63.91;101528.78;5064718;28;20063;-83
2022/01/15 03:30:11;;;;;;;24.80;13.70;;;;;;;4.16;63.46;101524.53;5065347;28;20056;-83
2022/01/15 03:32:55;;;;;;;23.23;14.77;;;;;;;4.12;63.10;101512.59;5104731;28;20695;-83
2022/01/15 03:35:41;;;;;;;19.65;10.63;;;;;;;4.08;63.04;101516.88;5091173;28;20047;-82
2022/01/15 03:38:25;;;;;;;24.55;13.88;;;;;;;4.15;63.82;101512.13;5078094;28;20051;-83
2022/01/15 03:41:10;;;;;;;20.05;11.18;;;;;;;4.12;63.32;101509.09;5072224;28;20037;-84
2022/01/15 03:43:55;;;;;;;21.42;11.45;;;;;;;3.95;63.41;101509.19;5057139;28;20041;-83
2022/01/15 03:46:40;;;;;;;22.63;11.67;;;;;;;4.05;63.45;101503.94;5063325;28;20045;-84
2022/01/15 03:49:25;;;;;;;18.08;11.98;;;;;;;4.07;63.05;101501.78;5064489;28;20047;-83
2022/01/15 03:52:10;;;;;;;24.27;13.13;;;;;;;3.88;64.42;101511.25;5083062;28;20044;-84
2022/01/15 03:54:56;;;;;;;24.73;15.50;;;;;;;4.09;63.43;101507.75;5081739;28;20043;-82
2022/01/15 03:57:41;;;;;;;27.20;14.43;;;;;;;4.17;62.84;101504.59;5081450;28;20055;-82
2022/01/15 04:00:26;;;;;;;16.80;10.20;;;;;;;3.91;64.73;101508.09;5082800;28;20043;-82
2022/01/15 04:03:11;;;;;;;18.65;10.57;;;;;;;4.07;64.09;101509.84;5085665;28;20515;-82
2022/01/15 04:05:56;;;;;;;19.77;11.55;;;;;;;3.28;65.18;101520.16;5084820;28;20501;-84
2022/01/15 04:08:40;;;;;;;21.30;11.10;;;;;;;3.66;64.07;101510.44;5083516;28;20051;-83
2022/01/15 04:11:25;;;;;;;25.52;11.10;;;;;;;3.95;63.79;101511.06;5085493;28;20044;-83
2022/01/15 04:14:11;;;;;;;20.88;12.02;;;;;;;4.00;62.56;101516.53;5071746;28;20044;-83
2022/01/15 04:16:56;;;;;;;24.67;13.60;;;;;;;3.97;64.02;101511.63;5086189;28;20047;-82
2022/01/15 04:19:41;;;;;;;16.90;11.30;;;;;;;4.04;63.62;101518.44;5085098;28;20055;-83
2022/01/15 04:22:26;;;;;;;19.17;11.77;;;;;;;3.56;62.64;101515.69;5079976;28;20033;-83
2022/01/15 04:25:11;;;;;;;22.45;10.65;;;;;;;3.72;63.16;101515.63;5081430;28;20409;-83
2022/01/15 04:27:59;;;;;;;20.02;12.75;;;;;;;3.77;62.73;101515.69;5084252;28;20040;-83
2022/01/15 04:30:47;;;;;;;29.67;15.52;;;;;;;3.91;62.64;101521.53;5083670;28;20044;-82
2022/01/15 04:33:37;;;;;;;25.67;13.98;;;;;;;3.50;62.60;101528.28;5085837;28;20505;-82
2022/01/15 04:36:22;;;;;;;25.23;15.77;;;;;;;3.39;63.86;101524.63;5084710;28;20516;-82
2022/01/15 04:39:07;;;;;;;20.52;11.95;;;;;;;3.56;63.71;101534.50;5080494;28;20068;-84
2022/01/15 04:41:52;;;;;;;17.93;10.60;;;;;;;3.63;62.95;101538.66;5081416;28;20044;-82
2022/01/15 04:44:37;;;;;;;20.45;12.30;;;;;;;3.24;64.55;101537.84;5079578;28;20056;-82
2022/01/15 04:47:22;;;;;;;;;;;;;;;3.32;65.25;101534.72;5082903;28;20120;-83
2022/01/15 04:50:11;;;;;;;28.35;15.55;;;;;;;3.38;63.45;101532.94;5080723;28;19912;-82
2022/01/15 04:52:56;;;;;;;26.08;13.70;;;;;;;3.23;63.47;101535.41;5085462;28;20532;-83
2022/01/15 04:55:41;;;;;;;25.67;13.85;;;;;;;2.83;65.35;101530.19;5082184;28;20039;-83
2022/01/15 04:58:27;;;;;;;19.73;11.23;;;;;;;2.47;66.85;101531.47;5081760;28;20051;-83
2022/01/15 05:01:12;;;;;;;30.00;14.07;;;;;;;2.09;67.33;101524.84;5079010;28;20045;-83
2022/01/15 05:03:56;;;;;;;28.80;11.60;;;;;;;1.93;68.74;101530.19;5085399;28;20044;-83
2022/01/15 05:06:41;;;;;;;21.53;12.07;;;;;;;2.05;68.78;101533.63;5081291;28;20040;-82
2022/01/15 05:09:26;;;;;;;19.13;11.27;;;;;;;2.16;66.88;101530.09;5078373;28;20047;-82
2022/01/15 05:12:25;;;;;;;22.08;11.73;;;;;;;2.18;66.91;101537.91;5082785;28;20048;-83
2022/01/15 05:15:12;;;;;;;25.00;13.80;;;;;;;2.11;67.17;101536.16;5078566;28;20047;-83
2022/01/15 05:17:56;;;;;;;22.83;13.18;;;;;;;2.24;68.05;101536.91;5080841;28;20067;-83
2022/01/15 05:20:44;;;;;;;28.53;10.53;;;;;;;2.11;66.88;101532.66;5085236;28;20040;-82
2022/01/15 05:23:29;;;;;;;25.75;12.50;;;;;;;2.04;67.06;101537.34;5084924;28;20620;-82
2022/01/15 05:26:13;;;;;;;19.60;10.93;;;;;;;2.06;67.48;101524.53;5078063;28;20045;-82
2022/01/15 05:28:58;;;;;;;17.65;9.77;;;;;;;2.18;66.87;101532.53;5078803;28;20052;-82
2022/01/15 05:31:43;;;;;;;17.30;9.63;;;;;;;2.06;67.49;101537.94;5078948;28;20417;-82
2022/01/15 05:34:28;;;;;;;16.67;10.57;;;;;;;2.24;67.02;101545.78;5083613;28;20535;-82
2022/01/15 05:37:12;;;;;;;17.07;9.07;;;;;;;2.58;66.12;101544.84;5082696;28;20041;-82
2022/01/15 05:39:57;;;;;;;22.27;10.13;;;;;;;2.36;66.80;101549.25;5078548;28;20305;-83
2022/01/15 05:42:42;;;;;;;19.88;9.93;;;;;;;2.34;66.94;101548.66;5080935;28;20290;-83
2022/01/15 05:45:28;;;;;;;13.82;8.20;;;;;;;2.28;67.26;101548.81;5083432;28;20036;-82
2022/01/15 05:48:13;;;;;;;27.88;11.00;;;;;;;2.70;65.35;101549.31;5082954;28;20525;-83
2022/01/15 05:50:58;;;;;;;18.80;9.13;;;;;;;2.36;66.02;101551.13;5094346;28;20051;-84
2022/01/15 05:53:42;;;;;;;18.77;12.05;;;;;;;2.37;67.79;101552.75;5085492;28;20047;-83
2022/01/15 05:56:28;;;;;;;15.95;9.35;;;;;;;2.38;66.31;101557.88;5087211;28;20052;-84
2022/01/15 05:59:13;;;;;;;25.13;11.68;;;;;;;2.76;65.77;101559.91;5081801;28;20079;-83
2022/01/15 06:01:58;;;;;;;18.55;10.65;;;;;;;2.80;66.67;101563.72;5086255;28;20051;-83
2022/01/15 06:04:43;;;;;;;17.58;8.15;;;;;;;3.03;66.11;101564.63;5085557;28;20510;-84
2022/01/15 06:07:28;;;;;;;13.23;7.65;;;;;;;2.92;64.45;101566.34;5083566;28;20516;-84
2022/01/15 06:10:12;;;;;;;15.60;9.20;;;;;;;3.13;65.45;101565.63;5081089;28;20051;-84
2022/01/15 06:12:59;;;;;;;15.00;8.63;;;;;;;2.94;64.80;101564.25;5078355;28;20052;-83
2022/01/15 06:15:43;;;;;;;17.75;9.90;;;;;;;2.47;65.38;101572.53;5088993;28;20059;-83
2022/01/15 06:18:28;;;;;;;13.97;8.07;;;;;;;2.84;65.12;101572.94;5074277;28;20073;-83
2022/01/15 06:21:13;;;;;;;14.75;8.80;;;;;;;2.68;65.10;101580.97;5084152;28;20278;-84
2022/01/15 06:23:57;;;;;;;14.90;7.25;;;;;;;2.80;66.04;101581.69;5081594;28;20051;-82
2022/01/15 06:26:42;;;;;;;11.98;7.70;;;;;;;3.01;63.20;101591.72;5084229;28;20039;-84
2022/01/15 06:29:27;;;;;;;14.97;7.70;;;;;;;2.25;65.64;101590.34;5078134;28;20071;-83
2022/01/15 06:32:12;;;;;;;14.57;8.70;;;;;;;2.17;65.98;101596.09;5082173;28;20059;-82
2022/01/15 06:34:57;;;;;;;;;;;;;;;2.49;64.71;101593.75;5080053;28;20043;-83
2022/01/15 06:37:41;;;;;;;24.10;8.65;;;;;;;2.77;64.09;101591.06;5077107;28;19916;-83
2022/01/15 06:40:26;;;;;;;15.88;8.35;;;;;;;2.90;63.76;101600.66;5076729;28;20048;-83
2022/01/15 06:43:12;;;;;;;20.67;8.95;;;;;;;2.67;63.75;101600.81;5085787;28;20051;-83
2022/01/15 06:45:56;;;;;;;14.38;7.18;;;;;;;2.70;63.75;101616.44;5079111;28;20044;-84
2022/01/15 06:48:41;;;;;;;13.30;7.80;;;;;;;2.45;64.12;101614.91;5081190;28;20043;-83
2022/01/15 06:51:26;;;;;;;13.73;7.93;;;;;;;2.96;62.99;101624.69;5082043;28;20047;-82
2022/01/15 06:54:11;;;;;;;18.23;8.13;;;;;;;2.93;63.33;101621.69;5080099;28;20044;-82
2022/01/15 06:56:55;;;;;;;15.10;8.68;;;;;;;3.04;63.46;101618.13;5084026;28;20516;-83
2022/01/15 06:59:44;;;;;;;16.70;8.57;;;;;;;2.99;63.40;101615.34;5085814;28;20059;-82
2022/01/15 07:02:30;;;;;;;23.17;11.13;;;;;;;2.72;64.16;101619.69;5074427;28;20047;-83
2022/01/15 07:05:15;;;;;;;17.35;9.93;;;;;;;2.61;63.21;101624.06;5080693;28;20041;-82
2022/01/15 07:07:59;;;;;;;15.63;8.85;;;;;;;2.61;63.68;101625.94;5076981;28;20413;-82
2022/01/15 07:10:45;;;;;;;16.83;8.60;;;;;;;2.85;63.81;101630.13;5081093;28;20051;-83
2022/01/15 07:13:30;;;;;;;19.48;8.35;;;;;;;3.02;63.70;101628.28;5082467;28;20090;-83
2022/01/15 07:16:15;;;;;;;14.82;8.18;;;;;;;2.90;62.84;101631.03;5078276;28;20040;-83
2022/01/15 07:19:01;;;;;;;19.52;8.10;;;;;;;2.75;63.61;101629.94;5079275;28;20051;-83
2022/01/15 07:21:47;;;;;;;20.67;10.75;;;;;;;2.58;64.07;101637.97;5080944;28;20052;-83
2022/01/15 07:24:31;;;;;;;20.73;10.45;;;;;;;2.59;64.11;101642.28;5076854;28;20045;-82
2022/01/15 07:27:16;;;;;;;15.82;8.57;;;;;;;2.18;65.68;101643.34;5088939;28;20039;-83
2022/01/15 07:30:04;;;;;;;17.65;9.55;;;;;;;2.64;65.47;101649.63;5084586;28;20052;-85
2022/01/15 07:32:49;;;;;;;24.08;12.55;;;;;;;2.57;65.07;101647.91;5086908;28;20044;-84
2022/01/15 07:35:34;;;;;;;22.10;12.05;;;;;;;2.84;64.59;101652.69;5088397;28;20048;-83
2022/01/15 07:38:20;;;;;;;17.02;10.20;;;;;;;3.03;63.20;101648.75;5064224;28;20052;-85
2022/01/15 07:41:06;;;;;;;18.95;10.93;;;;;;;2.84;64.70;101660.75;5088470;28;20062;-83
2022/01/15 07:43:51;;;;;;;31.23;10.50;;;;;;;3.34;63.18;101663.50;5090176;28;20133;-84
2022/01/15 07:46:36;;;;;;;32.08;15.85;;;;;;;3.45;62.71;101662.63;5076098;28;20043;-84
2022/01/15 07:49:21;;;;;;;20.98;9.70;;;;;;;3.59;62.10;101666.59;5084069;28;20052;-84
2022/01/15 07:52:07;;;;;;;26.10;13.60;;;;;;;3.49;61.99;101665.63;5083298;28;20059;-84
2022/01/15 07:54:52;;;;;;;27.67;9.45;;;;;;;3.42;62.42;101665.78;5089753;28;20040;-84
2022/01/15 07:57:36;;;;;;;21.67;11.02;;;;;;;3.21;63.78;101666.50;5083153;28;20051;-84
2022/01/15 08:00:21;;;;;;;18.45;11.15;;;;;;;3.38;63.57;101667.34;5090106;28;20059;-84
2022/01/15 08:03:07;;;;;;;28.17;13.55;;;;;;;3.13;64.61;101666.91;5071085;28;20047;-84
2022/01/15 08:05:52;;;;;;;21.42;9.30;;;;;;;3.14;65.40;101672.03;5085195;28;20397;-84
2022/01/15 08:08:37;;;;;;;22.90;9.63;;;;;;;3.62;64.23;101682.25;5085442;28;20052;-84
2022/01/15 08:11:22;;;;;;;19.17;8.77;;;;;;;3.93;63.87;101674.63;5088835;28;20067;-85
2022/01/15 08:14:07;;;;;;;27.70;9.45;;;;;;;4.15;63.12;101673.59;5068529;28;20052;-84
2022/01/15 08:16:52;;;;;;;12.63;8.85;;;;;;;4.39;62.85;101678.75;5085315;28;20075;-85
2022/01/15 08:19:46;;;;;;;22.40;9.15;;;;;;;4.57;62.04;101670.38;5080179;28;20051;-84
2022/01/15 08:22:31;;;;;;;37.67;13.40;;;;;;;4.64;62.21;101666.41;5082376;28;20063;-86
2022/01/15 08:25:17;;;;;;;21.40;9.30;;;;;;;4.76;61.91;101674.34;5085432;28;20047;-84
2022/01/15 08:28:02;;;;;;;20.23;11.60;;;;;;;4.81;60.97;101668.19;5080543;28;20659;-83
2022/01/15 08:30:50;;;;;;;19.67;9.57;;;;;;;4.96;61.72;101668.34;5082072;28;20032;-83
2022/01/15 08:33:35;;;;;;;31.17;13.02;;;;;;;5.10;62.16;101675.78;5075025;28;20051;-83
2022/01/15 08:36:21;;;;;;;25.70;12.35;;;;;;;5.14;61.84;101679.59;5084420;28;20472;-82
2022/01/15 08:39:08;;;;;;;34.70;14.80;;;;;;;5.13;62.91;101672.56;5081400;28;20056;-81
2022/01/15 08:41:53;;;;;;;31.15;17.17;;;;;;;5.17;62.52;101683.66;5078344;28;20063;-82
2022/01/15 08:44:42;;;;;;;23.03;13.17;;;;;;;5.28;62.56;101682.69;5066006;28;20428;-81
2022/01/15 08:47:27;;;;;;;28.10;16.63;;;;;;;5.33;61.65;101687.31;5078783;28;20501;-81
2022/01/15 08:50:13;;;;;;;19.52;11.93;;;;;;;5.45;61.66;101696.03;5073989;28;20048;-82
2022/01/15 08:52:58;;;;;;;30.92;15.93;;;;;;;5.45;61.83;101694.16;5078508;28;20044;-81
2022/01/15 08:55:44;;;;;;;27.73;15.57;;;;;;;5.45;61.73;101693.34;5077823;28;20409;-86
2022/01/15 08:58:29;;;;;;;31.02;16.45;;;;;;;5.63;62.89;101689.44;5082591;28;20036;-82
2022/01/15 09:01:15;;;;;;;33.40;17.35;;;;;;;5.78;63.03;101690.38;5083007;28;21271;-83
2022/01/15 09:04:00;;;;;;;26.55;15.88;;;;;;;5.89;61.63;101691.28;5070400;28;20416;-84
2022/01/15 09:06:45;;;;;;;23.58;11.75;;;;;;;6.00;60.52;101688.38;5079112;28;20055;-83
2022/01/15 09:09:30;;;;;;;25.58;13.50;;;;;;;6.26;59.75;101696.63;5081158;28;20048;-84
2022/01/15 09:12:17;;;;;;;17.15;11.13;;;;;;;6.24;59.56;101701.50;5087239;28;20055;-83
2022/01/15 09:15:04;;;;;;;26.83;13.80;;;;;;;6.26;59.88;101705.53;5084542;28;20416;-83
2022/01/15 09:17:49;;;;;;;29.05;14.18;;;;;;;6.32;60.20;101700.97;5087772;28;20056;-83
2022/01/15 09:20:33;;;;;;;25.63;12.77;;;;;;;6.39;59.91;101698.88;5082962;28;20047;-81
2022/01/15 09:23:19;;;;;;;21.08;11.68;;;;;;;6.27;58.95;101711.75;5077791;28;20051;-82
2022/01/15 09:26:04;;;;;;;22.55;11.68;;;;;;;6.35;58.27;101708.56;5101443;28;20432;-83
2022/01/15 09:31:53;;;;;;;24.17;15.45;;;;;;;6.50;56.69;101711.34;5097518;28;20070;-81
2022/01/15 09:34:38;;;;;;;21.60;12.00;;;;;;;6.61;56.19;101715.69;5101845;28;20047;-82
2022/01/15 09:37:23;;;;;;;30.20;16.33;;;;;;;6.80;55.27;101713.38;5084013;28;20096;-79
2022/01/15 09:40:10;;;;;;;22.63;13.27;;;;;;;6.80;56.19;101702.56;5075230;28;20052;-78
2022/01/15 09:42:56;;;;;;;31.30;18.10;;;;;;;6.87;55.39;101712.03;5084795;28;20032;-79
2022/01/15 09:45:42;;;;;;;36.25;19.02;;;;;;;6.85;55.94;101707.97;5091020;28;20418;-79
2022/01/15 09:48:29;;;;;;;28.23;17.55;;;;;;;6.88;55.25;101723.66;5086099;28;20033;-80
2022/01/15 09:51:14;;;;;;;32.53;18.75;;;;;;;6.96;55.72;101712.31;5095150;28;20039;-79
2022/01/15 09:54:00;;;;;;;32.72;17.48;;;;;;;7.13;54.71;101714.78;5088948;28;20043;-79
2022/01/15 09:56:46;;;;;;;26.77;15.63;;;;;;;7.09;53.83;101713.69;5076251;28;20048;-79
2022/01/15 09:59:31;;;;;;;35.65;17.30;;;;;;;7.10;55.12;101707.22;5088225;28;20051;-80
2022/01/15 10:02:16;;;;;;;24.90;14.40;;;;;;;7.14;54.84;101711.00;5056600;28;20045;-79
2022/01/15 10:05:01;;;;;;;24.13;13.50;;;;;;;7.43;52.66;101712.13;5085772;28;20408;-79
2022/01/15 10:07:57;;;;;;;25.50;13.95;;;;;;;7.55;52.57;101717.28;5080359;28;20044;-79
2022/01/15 10:10:48;;;;;;;29.65;17.75;;;;;;;7.56;52.78;101719.72;5077887;28;20052;-80
2022/01/15 10:13:42;;;;;;;31.75;18.67;;;;;;;7.60;52.58;101715.38;5072326;28;20051;-79
2022/01/15 10:16:30;;;;;;;35.10;17.90;;;;;;;7.62;52.25;101715.91;5079699;28;20498;-79
2022/01/15 10:19:25;;;;;;;32.53;18.20;;;;;;;7.70;53.54;101714.56;5086267;28;20063;-79
2022/01/15 10:22:17;;;;;;;29.80;17.13;;;;;;;7.62;52.69;101718.63;5078834;28;20047;-79
2022/01/15 10:25:07;;;;;;;34.92;18.23;;;;;;;7.72;52.70;101717.81;5082127;28;20285;-79
2022/01/15 10:27:53;;;;;;;29.63;18.42;;;;;;;7.83;53.06;101705.06;5080581;28;20051;-79
2022/01/15 10:30:44;;;;;;;34.38;18.00;;;;;;;7.94;52.57;101709.41;5080277;28;20068;-79
2022/01/15 10:33:28;;;;;;;33.10;18.15;;;;;;;7.93;52.56;101707.78;5076654;28;20044;-79
2022/01/15 10:36:29;;;;;;;30.63;15.67;;;;;;;8.05;52.72;101708.31;5075999;28;20051;-79
2022/01/15 10:39:20;;;;;;;36.00;18.42;;;;;;;7.88;52.61;101705.06;5071495;28;20040;-79
2022/01/15 10:42:16;;;;;;;54.65;20.63;;;;;;;8.77;60.19;101720.56;5096874;28;20526;-81
2022/01/15 10:45:08;;;;;;;44.17;20.63;;;;;;;8.57;51.21;101711.44;5100274;28;20051;-81
2022/01/15 10:47:55;;;;;;;37.05;20.17;;;;;;;8.92;51.67;101715.06;5101377;28;20043;-86
2022/01/15 10:50:40;;;;;;;36.83;20.05;;;;;;;8.49;51.24;101711.19;5090230;28;20052;-86
2022/01/15 10:53:44;;;;;;;41.97;15.50;;;;;;;8.78;52.28;101714.06;5090716;28;20433;-86
2022/01/15 10:56:34;;;;;;;32.00;19.70;;;;;;;8.68;52.52;101709.50;5077828;28;20527;-85
2022/01/15 10:59:19;;;;;;;34.40;18.90;;;;;;;8.86;50.71;101706.16;5079224;28;20412;-85
2022/01/15 11:02:20;;;;;;;31.35;15.65;;;;;;;8.87;49.77;101712.38;5104938;28;20043;-87
2022/01/15 11:05:29;;;;;;;44.03;19.25;;;;;;;8.88;49.29;101711.31;5089823;28;20059;-86
2022/01/15 11:08:18;;;;;;;34.72;18.48;;;;;;;8.85;50.04;101707.25;5091565;28;20511;-85
2022/01/15 11:11:08;;;;;;;34.65;20.30;;;;;;;9.44;48.32;101701.72;5095936;28;20067;-86
2022/01/15 11:13:53;;;;;;;33.75;17.98;;;;;;;9.48;49.43;101701.13;5088151;28;20043;-84
2022/01/15 11:16:38;;;;;;;25.33;14.73;;;;;;;9.32;48.92;101698.53;5084021;28;20036;-86
2022/01/15 11:19:25;;;;;;;33.97;20.40;;;;;;;9.38;48.35;101694.69;5079000;28;20037;-87
2022/01/15 11:22:10;;;;;;;36.75;19.52;;;;;;;9.51;48.27;101689.69;5080283;28;20043;-80
2022/01/15 11:24:55;;;;;;;26.75;16.08;;;;;;;9.33;48.52;101693.94;5083978;28;20040;-82
2022/01/15 11:27:40;;;;;;;36.40;20.30;;;;;;;9.16;49.42;101688.88;5090440;28;20409;-83
2022/01/15 11:30:26;;;;;;;26.17;15.93;;;;;;;9.19;49.45;101680.19;5091291;28;20036;-82
2022/01/15 11:33:12;;;;;;;31.33;19.08;;;;;;;9.23;48.77;101683.97;5097025;28;20063;-84
2022/01/15 11:35:58;;;;;;;45.72;20.48;;;;;;;9.25;49.15;101673.59;5098360;28;20392;-85
2022/01/15 11:38:51;;;;;;;35.22;21.58;;;;;;;9.47;48.90;101673.19;5085191;28;20051;-85
2022/01/15 11:41:39;;;;;;;34.53;21.23;;;;;;;9.58;48.67;101676.63;5079780;28;20041;-85
2022/01/15 11:44:35;;;;;;;36.78;20.25;;;;;;;9.50;49.18;101666.38;5075585;28;20075;-85
2022/01/15 11:47:25;;;;;;;;;;;;;;;9.68;47.26;101668.38;5074179;28;20044;-85
2022/01/15 11:50:19;;;;;;;35.55;18.85;;;;;;;9.85;46.03;101657.91;5074362;28;20385;-84
2022/01/15 11:53:06;;;;;;;32.13;18.75;;;;;;;9.98;46.12;101659.94;5074973;28;20435;-88
2022/01/15 11:56:14;;;;;;;28.45;18.48;;;;;;;9.96;45.89;101653.97;5080565;28;20044;-86
2022/01/15 11:59:25;;;;;;;32.50;19.02;;;;;;;9.95;45.30;101646.13;5071578;28;20044;-84
2022/01/15 12:02:31;;;;;;;32.60;19.25;;;;;;;9.99;46.74;101634.38;5073810;28;20049;-84
2022/01/15 12:05:16;;;;;;;32.42;19.33;;;;;;;10.05;47.32;101633.25;5075508;28;20051;-85
2022/01/15 12:08:00;;;;;;;26.52;16.00;;;;;;;10.07;46.92;101636.47;5074392;28;20040;-85
2022/01/15 12:10:50;;;;;;;39.03;19.65;;;;;;;9.99;46.04;101625.44;5078577;28;20433;-84
2022/01/15 12:13:44;;;;;;;34.70;20.35;;;;;;;10.07;47.27;101625.59;5075351;28;20051;-84
2022/01/15 12:16:33;;;;;;;36.40;20.88;;;;;;;10.09;45.95;101626.13;5073595;28;20040;-86
2022/01/15 12:19:35;;;;;;;32.47;20.38;;;;;;;10.16;47.09;101612.19;5076181;28;20401;-85
2022/01/15 12:22:54;;;;;;;32.47;19.40;;;;;;;10.27;46.25;101614.50;5079140;28;20040;-86
2022/01/15 12:25:38;;;;;;;35.72;20.42;;;;;;;10.25;46.45;101611.28;5043558;28;20048;-86
2022/01/15 12:28:26;;;;;;;30.25;19.50;;;;;;;10.28;46.61;101613.41;5079108;28;20036;-85
2022/01/15 12:31:11;;;;;;;33.00;19.67;;;;;;;10.38;45.88;101600.78;5076619;28;20044;-85
2022/01/15 12:33:55;;;;;;;25.75;15.93;;;;;;;10.43;45.56;101595.28;5080454;28;20040;-86
2022/01/15 12:36:47;;;;;;;34.70;21.83;;;;;;;10.59;45.06;101599.41;5063403;28;20044;-85
2022/01/15 12:39:36;;;;;;;31.40;17.80;;;;;;;10.63;44.26;101600.44;5072207;28;20041;-84
2022/01/15 12:42:29;;;;;;;32.95;19.70;;;;;;;10.65;45.45;101590.91;5065969;28;20043;-86
2022/01/15 12:45:18;;;;;;;32.80;19.00;;;;;;;10.77;44.76;101582.28;5069693;28;20418;-85
2022/01/15 12:48:03;;;;;;;32.10;18.63;;;;;;;10.83;44.41;101575.66;5077271;28;20037;-86
2022/01/15 12:50:53;;;;;;;30.35;18.38;;;;;;;10.87;44.52;101579.41;5075597;28;20044;-86
2022/01/15 12:53:43;;;;;;;31.42;19.58;;;;;;;11.08;44.62;101575.25;5072993;28;20048;-86
2022/01/15 12:56:29;;;;;;;30.95;18.55;;;;;;;11.25;44.17;101573.91;5088681;28;20032;-86
2022/01/15 12:59:14;;;;;;;32.55;18.98;;;;;;;11.42;43.84;101564.06;5089436;28;20044;-85
2022/01/15 13:01:58;;;;;;;24.75;14.55;;;;;;;11.43;41.91;101562.94;5095467;28;20044;-84
2022/01/15 13:04:53;;;;;;;29.50;14.63;;;;;;;11.47;42.60;101563.97;5092063;28;20048;-86
2022/01/15 13:07:51;;;;;;;40.40;19.85;;;;;;;11.94;42.24;101565.53;5094614;28;20416;-84
2022/01/15 13:10:56;;;;;;;28.92;18.67;;;;;;;12.11;42.41;101553.22;5069866;28;20044;-85
2022/01/15 13:13:43;;;;;;;24.67;15.88;;;;;;;14.56;38.27;101553.69;5077852;28;20040;-86
2022/01/15 13:16:30;;;;;;;36.40;19.73;;;;;;;22.50;24.85;101553.59;5073316;28;20044;-85